KBVO/BVO METAR and TAF weather

Enter ICAO airport designator
Station Type Date Time Source
KBVO METAR 2021/01/17 18:53 UTC NOAA

KBVO 171853Z 28008G19KT 250V310 10SM CLR 10/M04 A3001 RMK AO2 SLP161 T01001039


Station Type Date Time Source
KBVO Decoded METAR 2021/01/17 18:53 UTC NOAA

BARTLESVILLE MUNICIPAL AIRPORT , OK, United States (KBVO) 36-46N 96-01W 210M
Jan 17, 2021 - 01:53 PM EST / 2021.01.17 1853 UTC
Wind: from the W (280 degrees) at 9 MPH (8 KT) gusting to 22 MPH (19 KT) (direction variable):0
Visibility: 10 mile(s):0
Sky conditions: clear
Temperature: 50.0 F (10.0 C)
Dew Point: 25.0 F (-3.9 C)
Relative Humidity: 37%
Pressure (altimeter): 30.01 in. Hg (1016 hPa)
ob: KBVO 171853Z 28008G19KT 250V310 10SM CLR 10/M04 A3001 RMK AO2 SLP161 T01001039
cycle: 19

Station Type Date Time Source
KBVO TAF 2021/01/17 18:22 UTC NOAA

TAF KBVO 171720Z 1718/1818 31012KT P6SM SKC
FM180000 00000KT P6SM SKC
FM181600 21007KT P6SM BKN150

Example: see airport list